sensor_id;sensor_type;location;lat;lon;timestamp;P1;durP1;ratioP1;P2;durP2;ratioP2
66384;SDS011;53426;55.872;37.462;2024-01-10T00:00:01;1.40;;;1.30;;
66384;SDS011;53426;55.872;37.462;2024-01-10T00:02:30;2.90;;;1.30;;
66384;SDS011;53426;55.872;37.462;2024-01-10T00:04:58;1.55;;;1.45;;
66384;SDS011;53426;55.872;37.462;2024-01-10T00:07:24;1.13;;;1.13;;
66384;SDS011;53426;55.872;37.462;2024-01-10T00:09:50;2.80;;;1.35;;
66384;SDS011;53426;55.872;37.462;2024-01-10T00:12:16;1.38;;;1.27;;
66384;SDS011;53426;55.872;37.462;2024-01-10T00:14:43;1.25;;;1.25;;
66384;SDS011;53426;55.872;37.462;2024-01-10T00:17:09;1.40;;;1.30;;
66384;SDS011;53426;55.872;37.462;2024-01-10T00:22:39;1.10;;;1.10;;
66384;SDS011;53426;55.872;37.462;2024-01-10T00:25:04;2.15;;;1.40;;
66384;SDS011;53426;55.872;37.462;2024-01-10T00:27:31;1.27;;;1.27;;
66384;SDS011;53426;55.872;37.462;2024-01-10T00:29:56;1.00;;;1.00;;
66384;SDS011;53426;55.872;37.462;2024-01-10T00:32:22;1.20;;;1.10;;
66384;SDS011;53426;55.872;37.462;2024-01-10T00:34:48;1.02;;;1.02;;
66384;SDS011;53426;55.872;37.462;2024-01-10T00:37:15;1.17;;;1.13;;
66384;SDS011;53426;55.872;37.462;2024-01-10T00:39:41;0.77;;;0.77;;
66384;SDS011;53426;55.872;37.462;2024-01-10T00:42:07;1.10;;;1.10;;
66384;SDS011;53426;55.872;37.462;2024-01-10T00:44:33;1.38;;;1.27;;
66384;SDS011;53426;55.872;37.462;2024-01-10T00:46:59;1.30;;;1.25;;
66384;SDS011;53426;55.872;37.462;2024-01-10T00:49:25;1.00;;;1.00;;
66384;SDS011;53426;55.872;37.462;2024-01-10T00:51:52;1.13;;;1.13;;
66384;SDS011;53426;55.872;37.462;2024-01-10T00:54:18;0.90;;;0.90;;
66384;SDS011;53426;55.872;37.462;2024-01-10T00:56:44;0.80;;;0.80;;
66384;SDS011;53426;55.872;37.462;2024-01-10T00:59:10;0.82;;;0.82;;
66384;SDS011;53426;55.872;37.462;2024-01-10T01:01:36;0.90;;;0.90;;
66384;SDS011;53426;55.872;37.462;2024-01-10T01:04:02;0.90;;;0.90;;
66384;SDS011;53426;55.872;37.462;2024-01-10T01:06:28;1.45;;;1.35;;
66384;SDS011;53426;55.872;37.462;2024-01-10T01:08:54;1.42;;;1.30;;
66384;SDS011;53426;55.872;37.462;2024-01-10T01:11:20;1.50;;;1.40;;
66384;SDS011;53426;55.872;37.462;2024-01-10T01:13:46;1.58;;;1.48;;
66384;SDS011;53426;55.872;37.462;2024-01-10T01:16:12;0.88;;;0.88;;
66384;SDS011;53426;55.872;37.462;2024-01-10T01:18:38;1.10;;;1.10;;
66384;SDS011;53426;55.872;37.462;2024-01-10T01:21:05;2.20;;;1.70;;
66384;SDS011;53426;55.872;37.462;2024-01-10T01:23:30;1.70;;;1.60;;
66384;SDS011;53426;55.872;37.462;2024-01-10T01:25:57;1.50;;;1.40;;
66384;SDS011;53426;55.872;37.462;2024-01-10T01:28:23;3.38;;;1.40;;
66384;SDS011;53426;55.872;37.462;2024-01-10T01:30:49;1.50;;;1.40;;
66384;SDS011;53426;55.872;37.462;2024-01-10T01:33:15;1.75;;;1.60;;
66384;SDS011;53426;55.872;37.462;2024-01-10T01:35:40;1.50;;;1.40;;
66384;SDS011;53426;55.872;37.462;2024-01-10T01:38:06;2.25;;;1.20;;
66384;SDS011;53426;55.872;37.462;2024-01-10T01:40:32;1.17;;;1.15;;
66384;SDS011;53426;55.872;37.462;2024-01-10T01:42:58;1.10;;;1.10;;
66384;SDS011;53426;55.872;37.462;2024-01-10T01:45:24;2.97;;;0.75;;
66384;SDS011;53426;55.872;37.462;2024-01-10T01:47:50;0.70;;;0.70;;
66384;SDS011;53426;55.872;37.462;2024-01-10T01:50:16;1.20;;;1.10;;
66384;SDS011;53426;55.872;37.462;2024-01-10T01:52:45;1.17;;;1.08;;
66384;SDS011;53426;55.872;37.462;2024-01-10T01:55:12;2.38;;;1.20;;
66384;SDS011;53426;55.872;37.462;2024-01-10T01:57:38;0.98;;;0.98;;
66384;SDS011;53426;55.872;37.462;2024-01-10T02:00:04;1.17;;;1.00;;
66384;SDS011;53426;55.872;37.462;2024-01-10T02:02:31;1.23;;;1.00;;
66384;SDS011;53426;55.872;37.462;2024-01-10T02:05:00;0.70;;;0.70;;
66384;SDS011;53426;55.872;37.462;2024-01-10T02:07:26;0.90;;;0.90;;
66384;SDS011;53426;55.872;37.462;2024-01-10T02:09:52;0.60;;;0.60;;
66384;SDS011;53426;55.872;37.462;2024-01-10T02:12:19;0.93;;;0.80;;
66384;SDS011;53426;55.872;37.462;2024-01-10T02:14:45;0.63;;;0.63;;
66384;SDS011;53426;55.872;37.462;2024-01-10T02:17:11;0.80;;;0.80;;
66384;SDS011;53426;55.872;37.462;2024-01-10T02:19:37;0.60;;;0.60;;
66384;SDS011;53426;55.872;37.462;2024-01-10T02:22:03;0.50;;;0.50;;
66384;SDS011;53426;55.872;37.462;2024-01-10T02:24:30;0.60;;;0.60;;
66384;SDS011;53426;55.872;37.462;2024-01-10T02:26:56;0.57;;;0.57;;
66384;SDS011;53426;55.872;37.462;2024-01-10T02:29:22;0.70;;;0.70;;
66384;SDS011;53426;55.872;37.462;2024-01-10T02:31:49;5.07;;;0.77;;
66384;SDS011;53426;55.872;37.462;2024-01-10T02:34:15;0.73;;;0.73;;
66384;SDS011;53426;55.872;37.462;2024-01-10T02:36:41;0.65;;;0.65;;
66384;SDS011;53426;55.872;37.462;2024-01-10T02:39:07;0.50;;;0.50;;
66384;SDS011;53426;55.872;37.462;2024-01-10T02:41:33;0.80;;;0.80;;
66384;SDS011;53426;55.872;37.462;2024-01-10T02:43:59;1.13;;;1.10;;
66384;SDS011;53426;55.872;37.462;2024-01-10T02:46:25;0.60;;;0.60;;
66384;SDS011;53426;55.872;37.462;2024-01-10T02:48:53;2.83;;;1.00;;
66384;SDS011;53426;55.872;37.462;2024-01-10T02:51:21;0.90;;;0.90;;
66384;SDS011;53426;55.872;37.462;2024-01-10T02:53:47;0.93;;;0.90;;
66384;SDS011;53426;55.872;37.462;2024-01-10T02:56:13;1.10;;;1.00;;
66384;SDS011;53426;55.872;37.462;2024-01-10T02:58:39;0.90;;;0.90;;
66384;SDS011;53426;55.872;37.462;2024-01-10T03:01:06;1.10;;;0.80;;
66384;SDS011;53426;55.872;37.462;2024-01-10T03:03:32;1.63;;;1.25;;
66384;SDS011;53426;55.872;37.462;2024-01-10T03:05:58;0.80;;;0.80;;
66384;SDS011;53426;55.872;37.462;2024-01-10T03:08:24;1.60;;;1.50;;
66384;SDS011;53426;55.872;37.462;2024-01-10T03:10:50;1.38;;;1.27;;
66384;SDS011;53426;55.872;37.462;2024-01-10T03:13:16;1.30;;;1.30;;
66384;SDS011;53426;55.872;37.462;2024-01-10T03:15:42;1.70;;;1.60;;
66384;SDS011;53426;55.872;37.462;2024-01-10T03:18:08;1.38;;;1.33;;
66384;SDS011;53426;55.872;37.462;2024-01-10T03:20:33;2.10;;;1.70;;
66384;SDS011;53426;55.872;37.462;2024-01-10T03:22:59;2.08;;;1.80;;
66384;SDS011;53426;55.872;37.462;2024-01-10T03:25:26;2.15;;;1.95;;
66384;SDS011;53426;55.872;37.462;2024-01-10T03:27:52;1.80;;;1.70;;
66384;SDS011;53426;55.872;37.462;2024-01-10T03:30:18;1.60;;;1.50;;
66384;SDS011;53426;55.872;37.462;2024-01-10T03:32:46;2.55;;;2.20;;
66384;SDS011;53426;55.872;37.462;2024-01-10T03:35:12;1.95;;;1.85;;
66384;SDS011;53426;55.872;37.462;2024-01-10T03:37:38;2.35;;;2.15;;
66384;SDS011;53426;55.872;37.462;2024-01-10T03:40:04;2.20;;;2.00;;
66384;SDS011;53426;55.872;37.462;2024-01-10T03:42:30;2.75;;;2.53;;
66384;SDS011;53426;55.872;37.462;2024-01-10T03:44:56;4.90;;;2.95;;
66384;SDS011;53426;55.872;37.462;2024-01-10T03:47:22;2.22;;;2.03;;
66384;SDS011;53426;55.872;37.462;2024-01-10T03:49:48;3.08;;;2.47;;
66384;SDS011;53426;55.872;37.462;2024-01-10T03:52:14;3.28;;;2.92;;
66384;SDS011;53426;55.872;37.462;2024-01-10T03:54:40;5.25;;;3.22;;
66384;SDS011;53426;55.872;37.462;2024-01-10T03:57:13;2.47;;;2.28;;
66384;SDS011;53426;55.872;37.462;2024-01-10T03:59:39;5.18;;;3.78;;
66384;SDS011;53426;55.872;37.462;2024-01-10T04:02:05;4.35;;;3.33;;
66384;SDS011;53426;55.872;37.462;2024-01-10T04:04:36;4.75;;;3.75;;
66384;SDS011;53426;55.872;37.462;2024-01-10T04:07:03;7.78;;;3.13;;
66384;SDS011;53426;55.872;37.462;2024-01-10T04:09:29;5.00;;;3.80;;
66384;SDS011;53426;55.872;37.462;2024-01-10T04:11:55;5.70;;;3.50;;
66384;SDS011;53426;55.872;37.462;2024-01-10T04:14:21;6.57;;;4.15;;
66384;SDS011;53426;55.872;37.462;2024-01-10T04:16:47;9.07;;;4.80;;
66384;SDS011;53426;55.872;37.462;2024-01-10T04:19:13;5.70;;;4.20;;
66384;SDS011;53426;55.872;37.462;2024-01-10T04:21:39;5.55;;;4.25;;
66384;SDS011;53426;55.872;37.462;2024-01-10T04:24:06;6.53;;;4.85;;
66384;SDS011;53426;55.872;37.462;2024-01-10T04:26:32;6.78;;;4.93;;
66384;SDS011;53426;55.872;37.462;2024-01-10T04:28:59;13.13;;;4.18;;
66384;SDS011;53426;55.872;37.462;2024-01-10T04:31:26;3.85;;;3.22;;
66384;SDS011;53426;55.872;37.462;2024-01-10T04:33:54;8.45;;;5.18;;
66384;SDS011;53426;55.872;37.462;2024-01-10T04:36:22;7.68;;;5.53;;
66384;SDS011;53426;55.872;37.462;2024-01-10T04:38:47;6.15;;;3.97;;
66384;SDS011;53426;55.872;37.462;2024-01-10T04:41:14;6.97;;;4.72;;
66384;SDS011;53426;55.872;37.462;2024-01-10T04:43:40;7.07;;;5.03;;
66384;SDS011;53426;55.872;37.462;2024-01-10T04:46:06;8.60;;;5.22;;
66384;SDS011;53426;55.872;37.462;2024-01-10T04:48:38;5.45;;;4.40;;
66384;SDS011;53426;55.872;37.462;2024-01-10T04:51:04;11.45;;;6.15;;
66384;SDS011;53426;55.872;37.462;2024-01-10T04:53:30;7.72;;;5.65;;
66384;SDS011;53426;55.872;37.462;2024-01-10T04:55:56;8.05;;;5.00;;
66384;SDS011;53426;55.872;37.462;2024-01-10T04:58:22;6.50;;;5.13;;
66384;SDS011;53426;55.872;37.462;2024-01-10T05:00:49;6.22;;;4.55;;
66384;SDS011;53426;55.872;37.462;2024-01-10T05:03:15;7.15;;;4.65;;
66384;SDS011;53426;55.872;37.462;2024-01-10T05:05:42;5.28;;;4.50;;
66384;SDS011;53426;55.872;37.462;2024-01-10T05:08:07;4.90;;;3.50;;
66384;SDS011;53426;55.872;37.462;2024-01-10T05:10:33;7.50;;;5.57;;
66384;SDS011;53426;55.872;37.462;2024-01-10T05:12:59;4.90;;;4.40;;
66384;SDS011;53426;55.872;37.462;2024-01-10T05:15:25;14.27;;;4.50;;
66384;SDS011;53426;55.872;37.462;2024-01-10T05:17:51;5.35;;;4.38;;
66384;SDS011;53426;55.872;37.462;2024-01-10T05:20:18;6.85;;;4.85;;
66384;SDS011;53426;55.872;37.462;2024-01-10T05:22:43;9.63;;;5.10;;
66384;SDS011;53426;55.872;37.462;2024-01-10T05:25:09;9.40;;;6.25;;
66384;SDS011;53426;55.872;37.462;2024-01-10T05:27:35;7.55;;;4.82;;
66384;SDS011;53426;55.872;37.462;2024-01-10T05:30:01;7.05;;;5.53;;
66384;SDS011;53426;55.872;37.462;2024-01-10T05:32:30;6.78;;;5.13;;
66384;SDS011;53426;55.872;37.462;2024-01-10T05:34:56;6.85;;;5.10;;
66384;SDS011;53426;55.872;37.462;2024-01-10T05:37:23;10.45;;;6.18;;
66384;SDS011;53426;55.872;37.462;2024-01-10T05:39:49;7.07;;;4.15;;
66384;SDS011;53426;55.872;37.462;2024-01-10T05:42:15;7.93;;;5.57;;
66384;SDS011;53426;55.872;37.462;2024-01-10T05:44:41;5.43;;;4.85;;
66384;SDS011;53426;55.872;37.462;2024-01-10T05:47:07;8.07;;;5.00;;
66384;SDS011;53426;55.872;37.462;2024-01-10T05:49:33;6.30;;;4.10;;
66384;SDS011;53426;55.872;37.462;2024-01-10T05:51:59;14.80;;;4.55;;
66384;SDS011;53426;55.872;37.462;2024-01-10T05:54:25;16.83;;;6.18;;
66384;SDS011;53426;55.872;37.462;2024-01-10T05:56:51;7.88;;;5.90;;
66384;SDS011;53426;55.872;37.462;2024-01-10T05:59:16;7.90;;;6.10;;
66384;SDS011;53426;55.872;37.462;2024-01-10T06:01:43;8.68;;;5.85;;
66384;SDS011;53426;55.872;37.462;2024-01-10T06:04:09;5.32;;;4.60;;
66384;SDS011;53426;55.872;37.462;2024-01-10T06:06:35;9.77;;;5.50;;
66384;SDS011;53426;55.872;37.462;2024-01-10T06:09:01;6.55;;;5.05;;
66384;SDS011;53426;55.872;37.462;2024-01-10T06:11:27;7.20;;;5.45;;
66384;SDS011;53426;55.872;37.462;2024-01-10T06:13:54;8.93;;;5.60;;
66384;SDS011;53426;55.872;37.462;2024-01-10T06:16:20;8.18;;;4.80;;
66384;SDS011;53426;55.872;37.462;2024-01-10T06:18:46;9.70;;;5.10;;
66384;SDS011;53426;55.872;37.462;2024-01-10T06:21:12;9.07;;;6.05;;
66384;SDS011;53426;55.872;37.462;2024-01-10T06:23:38;5.65;;;4.35;;
66384;SDS011;53426;55.872;37.462;2024-01-10T06:26:04;6.25;;;4.85;;
66384;SDS011;53426;55.872;37.462;2024-01-10T06:28:30;5.20;;;4.00;;
66384;SDS011;53426;55.872;37.462;2024-01-10T06:30:56;7.47;;;5.55;;
66384;SDS011;53426;55.872;37.462;2024-01-10T06:33:22;8.25;;;5.45;;
66384;SDS011;53426;55.872;37.462;2024-01-10T06:35:48;6.70;;;5.13;;
66384;SDS011;53426;55.872;37.462;2024-01-10T06:38:14;5.82;;;4.03;;
66384;SDS011;53426;55.872;37.462;2024-01-10T06:40:42;6.70;;;4.28;;
66384;SDS011;53426;55.872;37.462;2024-01-10T06:43:10;4.35;;;3.13;;
66384;SDS011;53426;55.872;37.462;2024-01-10T06:45:36;7.93;;;5.72;;
66384;SDS011;53426;55.872;37.462;2024-01-10T06:48:01;7.68;;;4.72;;
66384;SDS011;53426;55.872;37.462;2024-01-10T06:50:28;4.82;;;4.15;;
66384;SDS011;53426;55.872;37.462;2024-01-10T06:52:55;6.97;;;5.13;;
66384;SDS011;53426;55.872;37.462;2024-01-10T06:55:21;9.38;;;5.45;;
66384;SDS011;53426;55.872;37.462;2024-01-10T06:57:49;6.10;;;4.97;;
66384;SDS011;53426;55.872;37.462;2024-01-10T07:00:21;7.78;;;5.13;;
66384;SDS011;53426;55.872;37.462;2024-01-10T07:02:48;9.65;;;4.93;;
66384;SDS011;53426;55.872;37.462;2024-01-10T07:05:15;6.00;;;5.30;;
66384;SDS011;53426;55.872;37.462;2024-01-10T07:07:41;8.35;;;5.60;;
66384;SDS011;53426;55.872;37.462;2024-01-10T07:10:07;12.10;;;5.65;;
66384;SDS011;53426;55.872;37.462;2024-01-10T07:12:34;7.90;;;5.45;;
66384;SDS011;53426;55.872;37.462;2024-01-10T07:20:21;10.63;;;6.05;;
66384;SDS011;53426;55.872;37.462;2024-01-10T07:22:49;7.82;;;5.13;;
66384;SDS011;53426;55.872;37.462;2024-01-10T07:25:17;10.18;;;6.32;;
66384;SDS011;53426;55.872;37.462;2024-01-10T07:27:44;9.73;;;6.15;;
66384;SDS011;53426;55.872;37.462;2024-01-10T07:30:10;7.82;;;4.97;;
66384;SDS011;53426;55.872;37.462;2024-01-10T07:32:42;6.93;;;5.03;;
66384;SDS011;53426;55.872;37.462;2024-01-10T07:35:10;9.00;;;5.80;;
66384;SDS011;53426;55.872;37.462;2024-01-10T07:37:40;10.63;;;5.55;;
66384;SDS011;53426;55.872;37.462;2024-01-10T07:40:18;5.18;;;4.30;;
66384;SDS011;53426;55.872;37.462;2024-01-10T07:42:44;8.13;;;5.07;;
66384;SDS011;53426;55.872;37.462;2024-01-10T07:45:13;7.93;;;4.20;;
66384;SDS011;53426;55.872;37.462;2024-01-10T07:47:39;8.07;;;5.25;;
66384;SDS011;53426;55.872;37.462;2024-01-10T07:50:09;7.30;;;4.50;;
66384;SDS011;53426;55.872;37.462;2024-01-10T07:52:36;10.88;;;5.82;;
66384;SDS011;53426;55.872;37.462;2024-01-10T07:55:02;6.95;;;4.75;;
66384;SDS011;53426;55.872;37.462;2024-01-10T07:57:33;5.75;;;4.35;;
66384;SDS011;53426;55.872;37.462;2024-01-10T08:00:04;8.02;;;5.07;;
66384;SDS011;53426;55.872;37.462;2024-01-10T08:03:18;5.32;;;4.15;;
66384;SDS011;53426;55.872;37.462;2024-01-10T08:05:44;6.85;;;4.45;;
66384;SDS011;53426;55.872;37.462;2024-01-10T08:08:12;6.30;;;4.82;;
66384;SDS011;53426;55.872;37.462;2024-01-10T08:10:39;7.03;;;4.55;;
66384;SDS011;53426;55.872;37.462;2024-01-10T08:13:06;7.80;;;4.68;;
66384;SDS011;53426;55.872;37.462;2024-01-10T08:15:32;9.05;;;4.90;;
66384;SDS011;53426;55.872;37.462;2024-01-10T08:18:00;8.68;;;5.53;;
66384;SDS011;53426;55.872;37.462;2024-01-10T08:20:31;6.78;;;5.07;;
66384;SDS011;53426;55.872;37.462;2024-01-10T08:22:58;10.07;;;5.93;;
66384;SDS011;53426;55.872;37.462;2024-01-10T08:25:24;6.55;;;5.57;;
66384;SDS011;53426;55.872;37.462;2024-01-10T08:27:50;10.32;;;4.72;;
66384;SDS011;53426;55.872;37.462;2024-01-10T08:30:20;6.22;;;5.20;;
66384;SDS011;53426;55.872;37.462;2024-01-10T08:32:48;7.32;;;5.05;;
66384;SDS011;53426;55.872;37.462;2024-01-10T08:35:14;13.68;;;5.10;;
66384;SDS011;53426;55.872;37.462;2024-01-10T08:37:41;7.05;;;4.30;;
66384;SDS011;53426;55.872;37.462;2024-01-10T08:40:12;7.43;;;4.82;;
66384;SDS011;53426;55.872;37.462;2024-01-10T08:42:40;8.27;;;5.45;;
66384;SDS011;53426;55.872;37.462;2024-01-10T08:45:08;5.20;;;4.32;;
66384;SDS011;53426;55.872;37.462;2024-01-10T08:47:37;8.50;;;5.32;;
66384;SDS011;53426;55.872;37.462;2024-01-10T08:50:04;8.57;;;5.68;;
66384;SDS011;53426;55.872;37.462;2024-01-10T08:52:35;10.68;;;6.07;;
66384;SDS011;53426;55.872;37.462;2024-01-10T08:55:05;6.72;;;5.05;;
66384;SDS011;53426;55.872;37.462;2024-01-10T08:57:31;6.50;;;5.10;;
66384;SDS011;53426;55.872;37.462;2024-01-10T08:59:59;7.53;;;5.05;;
66384;SDS011;53426;55.872;37.462;2024-01-10T09:02:29;8.32;;;5.15;;
66384;SDS011;53426;55.872;37.462;2024-01-10T09:04:55;8.50;;;5.93;;
66384;SDS011;53426;55.872;37.462;2024-01-10T09:07:21;7.03;;;5.60;;
66384;SDS011;53426;55.872;37.462;2024-01-10T09:09:47;6.15;;;5.00;;
66384;SDS011;53426;55.872;37.462;2024-01-10T09:12:13;7.53;;;5.45;;
66384;SDS011;53426;55.872;37.462;2024-01-10T09:14:39;10.93;;;6.03;;
66384;SDS011;53426;55.872;37.462;2024-01-10T09:17:05;8.85;;;6.45;;
66384;SDS011;53426;55.872;37.462;2024-01-10T09:19:32;7.88;;;5.93;;
66384;SDS011;53426;55.872;37.462;2024-01-10T09:21:58;9.82;;;5.95;;
66384;SDS011;53426;55.872;37.462;2024-01-10T09:24:24;8.85;;;5.93;;
66384;SDS011;53426;55.872;37.462;2024-01-10T09:26:53;7.63;;;5.45;;
66384;SDS011;53426;55.872;37.462;2024-01-10T09:29:19;12.48;;;6.15;;
66384;SDS011;53426;55.872;37.462;2024-01-10T09:31:45;10.05;;;5.22;;
66384;SDS011;53426;55.872;37.462;2024-01-10T09:34:11;11.02;;;6.30;;
66384;SDS011;53426;55.872;37.462;2024-01-10T09:36:38;8.93;;;5.57;;
66384;SDS011;53426;55.872;37.462;2024-01-10T09:39:04;7.75;;;5.75;;
66384;SDS011;53426;55.872;37.462;2024-01-10T09:41:32;9.85;;;6.13;;
66384;SDS011;53426;55.872;37.462;2024-01-10T09:44:06;11.18;;;6.13;;
66384;SDS011;53426;55.872;37.462;2024-01-10T09:46:34;8.57;;;5.28;;
66384;SDS011;53426;55.872;37.462;2024-01-10T09:49:02;8.52;;;5.68;;
66384;SDS011;53426;55.872;37.462;2024-01-10T09:51:29;11.93;;;5.97;;
66384;SDS011;53426;55.872;37.462;2024-01-10T09:53:56;13.65;;;5.60;;
66384;SDS011;53426;55.872;37.462;2024-01-10T09:56:25;6.85;;;5.28;;
66384;SDS011;53426;55.872;37.462;2024-01-10T09:58:51;6.63;;;5.03;;
66384;SDS011;53426;55.872;37.462;2024-01-10T10:01:22;7.13;;;5.32;;
66384;SDS011;53426;55.872;37.462;2024-01-10T10:03:48;7.07;;;4.88;;
66384;SDS011;53426;55.872;37.462;2024-01-10T10:06:15;9.30;;;5.38;;
66384;SDS011;53426;55.872;37.462;2024-01-10T10:08:41;6.85;;;4.88;;
66384;SDS011;53426;55.872;37.462;2024-01-10T10:11:11;10.35;;;5.65;;
66384;SDS011;53426;55.872;37.462;2024-01-10T10:13:39;7.55;;;5.47;;
66384;SDS011;53426;55.872;37.462;2024-01-10T10:16:07;6.82;;;5.13;;
66384;SDS011;53426;55.872;37.462;2024-01-10T10:18:39;13.23;;;6.45;;
66384;SDS011;53426;55.872;37.462;2024-01-10T10:23:45;8.95;;;6.18;;
66384;SDS011;53426;55.872;37.462;2024-01-10T10:26:32;11.30;;;6.68;;
66384;SDS011;53426;55.872;37.462;2024-01-10T10:28:59;10.68;;;6.60;;
66384;SDS011;53426;55.872;37.462;2024-01-10T10:31:25;14.38;;;6.68;;
66384;SDS011;53426;55.872;37.462;2024-01-10T10:36:49;10.93;;;7.43;;
66384;SDS011;53426;55.872;37.462;2024-01-10T10:39:18;8.85;;;6.85;;
66384;SDS011;53426;55.872;37.462;2024-01-10T10:41:44;10.43;;;7.20;;
66384;SDS011;53426;55.872;37.462;2024-01-10T10:44:12;11.82;;;7.25;;
66384;SDS011;53426;55.872;37.462;2024-01-10T10:46:46;10.68;;;7.63;;
66384;SDS011;53426;55.872;37.462;2024-01-10T10:49:18;10.82;;;7.03;;
66384;SDS011;53426;55.872;37.462;2024-01-10T10:51:51;7.85;;;5.60;;
66384;SDS011;53426;55.872;37.462;2024-01-10T10:54:22;13.02;;;5.95;;
66384;SDS011;53426;55.872;37.462;2024-01-10T10:56:49;12.18;;;5.85;;
66384;SDS011;53426;55.872;37.462;2024-01-10T10:59:17;7.72;;;5.82;;
66384;SDS011;53426;55.872;37.462;2024-01-10T11:01:57;8.77;;;5.38;;
66384;SDS011;53426;55.872;37.462;2024-01-10T11:04:23;9.40;;;5.63;;
66384;SDS011;53426;55.872;37.462;2024-01-10T11:06:50;6.78;;;4.97;;
66384;SDS011;53426;55.872;37.462;2024-01-10T11:09:16;8.10;;;6.20;;
66384;SDS011;53426;55.872;37.462;2024-01-10T11:11:50;10.35;;;5.43;;
66384;SDS011;53426;55.872;37.462;2024-01-10T11:26:06;7.22;;;5.80;;
66384;SDS011;53426;55.872;37.462;2024-01-10T11:28:56;8.15;;;6.22;;
66384;SDS011;53426;55.872;37.462;2024-01-10T11:31:29;10.02;;;6.07;;
66384;SDS011;53426;55.872;37.462;2024-01-10T11:33:57;7.65;;;5.53;;
66384;SDS011;53426;55.872;37.462;2024-01-10T11:36:28;9.07;;;5.65;;
66384;SDS011;53426;55.872;37.462;2024-01-10T11:38:57;8.30;;;5.53;;
66384;SDS011;53426;55.872;37.462;2024-01-10T11:41:28;11.45;;;6.13;;
66384;SDS011;53426;55.872;37.462;2024-01-10T11:46:48;11.80;;;5.88;;
66384;SDS011;53426;55.872;37.462;2024-01-10T11:49:16;11.48;;;6.57;;
66384;SDS011;53426;55.872;37.462;2024-01-10T11:51:46;11.02;;;5.78;;
66384;SDS011;53426;55.872;37.462;2024-01-10T11:57:10;7.80;;;5.03;;
66384;SDS011;53426;55.872;37.462;2024-01-10T11:59:37;9.27;;;5.65;;
66384;SDS011;53426;55.872;37.462;2024-01-10T12:02:06;6.93;;;4.97;;
66384;SDS011;53426;55.872;37.462;2024-01-10T12:04:34;8.63;;;6.15;;
66384;SDS011;53426;55.872;37.462;2024-01-10T12:07:03;8.60;;;5.32;;
66384;SDS011;53426;55.872;37.462;2024-01-10T12:09:31;9.43;;;5.60;;
66384;SDS011;53426;55.872;37.462;2024-01-10T12:11:57;10.13;;;5.57;;
66384;SDS011;53426;55.872;37.462;2024-01-10T12:14:28;9.60;;;5.15;;
66384;SDS011;53426;55.872;37.462;2024-01-10T12:16:54;7.35;;;5.07;;
66384;SDS011;53426;55.872;37.462;2024-01-10T12:19:20;8.25;;;5.90;;
66384;SDS011;53426;55.872;37.462;2024-01-10T12:21:46;13.10;;;5.10;;
66384;SDS011;53426;55.872;37.462;2024-01-10T12:24:13;7.43;;;6.00;;
66384;SDS011;53426;55.872;37.462;2024-01-10T12:26:49;6.07;;;5.47;;
66384;SDS011;53426;55.872;37.462;2024-01-10T12:29:17;7.38;;;5.10;;
66384;SDS011;53426;55.872;37.462;2024-01-10T12:31:46;9.93;;;5.60;;
66384;SDS011;53426;55.872;37.462;2024-01-10T12:34:13;11.65;;;5.43;;
66384;SDS011;53426;55.872;37.462;2024-01-10T12:36:40;11.82;;;5.70;;
66384;SDS011;53426;55.872;37.462;2024-01-10T12:39:07;9.85;;;5.18;;
66384;SDS011;53426;55.872;37.462;2024-01-10T12:41:33;6.88;;;4.93;;
66384;SDS011;53426;55.872;37.462;2024-01-10T12:44:00;12.80;;;5.45;;
66384;SDS011;53426;55.872;37.462;2024-01-10T12:46:30;10.20;;;5.85;;
66384;SDS011;53426;55.872;37.462;2024-01-10T12:51:57;8.50;;;5.65;;
66384;SDS011;53426;55.872;37.462;2024-01-10T12:54:23;11.35;;;6.30;;
66384;SDS011;53426;55.872;37.462;2024-01-10T12:56:50;7.60;;;5.00;;
66384;SDS011;53426;55.872;37.462;2024-01-10T12:59:17;10.80;;;6.60;;
66384;SDS011;53426;55.872;37.462;2024-01-10T13:01:43;9.65;;;5.88;;
66384;SDS011;53426;55.872;37.462;2024-01-10T13:04:09;6.63;;;4.40;;
66384;SDS011;53426;55.872;37.462;2024-01-10T13:06:39;7.50;;;5.30;;
66384;SDS011;53426;55.872;37.462;2024-01-10T13:09:06;6.88;;;5.07;;
66384;SDS011;53426;55.872;37.462;2024-01-10T13:11:31;9.55;;;6.00;;
66384;SDS011;53426;55.872;37.462;2024-01-10T13:13:59;7.03;;;4.65;;
66384;SDS011;53426;55.872;37.462;2024-01-10T13:16:26;8.45;;;4.97;;
66384;SDS011;53426;55.872;37.462;2024-01-10T13:18:52;5.45;;;4.88;;
66384;SDS011;53426;55.872;37.462;2024-01-10T13:21:20;7.28;;;4.63;;
66384;SDS011;53426;55.872;37.462;2024-01-10T13:23:48;10.18;;;5.03;;
66384;SDS011;53426;55.872;37.462;2024-01-10T13:26:14;11.55;;;5.35;;
66384;SDS011;53426;55.872;37.462;2024-01-10T13:28:40;7.13;;;4.90;;
66384;SDS011;53426;55.872;37.462;2024-01-10T13:31:06;7.82;;;4.75;;
66384;SDS011;53426;55.872;37.462;2024-01-10T13:33:35;8.20;;;4.80;;
66384;SDS011;53426;55.872;37.462;2024-01-10T13:36:02;6.50;;;4.93;;
66384;SDS011;53426;55.872;37.462;2024-01-10T13:38:31;8.52;;;4.93;;
66384;SDS011;53426;55.872;37.462;2024-01-10T13:40:57;9.27;;;5.75;;
66384;SDS011;53426;55.872;37.462;2024-01-10T13:46:14;6.25;;;4.97;;
66384;SDS011;53426;55.872;37.462;2024-01-10T13:48:42;6.13;;;4.15;;
66384;SDS011;53426;55.872;37.462;2024-01-10T13:51:08;6.88;;;4.63;;
66384;SDS011;53426;55.872;37.462;2024-01-10T13:53:35;7.03;;;5.43;;
66384;SDS011;53426;55.872;37.462;2024-01-10T13:56:01;6.90;;;4.97;;
66384;SDS011;53426;55.872;37.462;2024-01-10T13:58:27;11.40;;;5.75;;
66384;SDS011;53426;55.872;37.462;2024-01-10T14:00:53;9.32;;;4.85;;
66384;SDS011;53426;55.872;37.462;2024-01-10T14:03:20;8.95;;;5.32;;
66384;SDS011;53426;55.872;37.462;2024-01-10T14:05:46;9.00;;;5.25;;
66384;SDS011;53426;55.872;37.462;2024-01-10T14:08:12;7.07;;;5.25;;
66384;SDS011;53426;55.872;37.462;2024-01-10T14:13:55;8.77;;;4.78;;
66384;SDS011;53426;55.872;37.462;2024-01-10T14:16:21;9.65;;;6.25;;
66384;SDS011;53426;55.872;37.462;2024-01-10T14:18:46;10.13;;;5.80;;
66384;SDS011;53426;55.872;37.462;2024-01-10T14:21:13;9.32;;;4.88;;
66384;SDS011;53426;55.872;37.462;2024-01-10T14:23:39;8.68;;;6.05;;
66384;SDS011;53426;55.872;37.462;2024-01-10T14:26:08;9.30;;;6.32;;
66384;SDS011;53426;55.872;37.462;2024-01-10T14:28:35;8.48;;;5.45;;
66384;SDS011;53426;55.872;37.462;2024-01-10T14:31:01;9.25;;;6.30;;
66384;SDS011;53426;55.872;37.462;2024-01-10T14:33:27;12.10;;;6.10;;
66384;SDS011;53426;55.872;37.462;2024-01-10T14:35:56;9.90;;;5.47;;
66384;SDS011;53426;55.872;37.462;2024-01-10T14:38:22;8.45;;;5.32;;
66384;SDS011;53426;55.872;37.462;2024-01-10T14:40:48;7.43;;;5.43;;
66384;SDS011;53426;55.872;37.462;2024-01-10T14:43:14;9.90;;;6.25;;
66384;SDS011;53426;55.872;37.462;2024-01-10T14:45:45;7.82;;;5.88;;
66384;SDS011;53426;55.872;37.462;2024-01-10T14:48:20;11.77;;;5.13;;
66384;SDS011;53426;55.872;37.462;2024-01-10T14:50:45;6.25;;;5.35;;
66384;SDS011;53426;55.872;37.462;2024-01-10T15:00:15;10.25;;;6.10;;
66384;SDS011;53426;55.872;37.462;2024-01-10T15:02:49;11.10;;;5.53;;
66384;SDS011;53426;55.872;37.462;2024-01-10T15:05:18;7.97;;;5.82;;
66384;SDS011;53426;55.872;37.462;2024-01-10T15:10:24;10.32;;;6.10;;
66384;SDS011;53426;55.872;37.462;2024-01-10T15:12:51;11.23;;;5.55;;
66384;SDS011;53426;55.872;37.462;2024-01-10T15:15:18;8.85;;;6.25;;
66384;SDS011;53426;55.872;37.462;2024-01-10T15:17:43;7.68;;;5.03;;
66384;SDS011;53426;55.872;37.462;2024-01-10T15:20:10;14.32;;;4.88;;
66384;SDS011;53426;55.872;37.462;2024-01-10T15:22:42;5.80;;;4.65;;